createdAt,value
2024-01-22T00:00:22.697Z,19.23
2024-01-22T00:02:49.151Z,24.73
2024-01-22T00:05:15.830Z,17.48
2024-01-22T00:07:42.246Z,15.63
2024-01-22T00:10:09.568Z,18.63
2024-01-22T00:12:38.009Z,15.88
2024-01-22T00:15:05.010Z,18.17
2024-01-22T00:17:31.419Z,19.40
2024-01-22T00:19:57.866Z,18.10
2024-01-22T00:22:24.311Z,15.80
2024-01-22T00:24:50.805Z,22.88
2024-01-22T00:27:17.326Z,17.92
2024-01-22T00:29:43.848Z,17.15
2024-01-22T00:32:11.572Z,17.67
2024-01-22T00:34:38.143Z,17.90
2024-01-22T00:37:04.922Z,16.55
2024-01-22T00:39:31.354Z,19.08
2024-01-22T00:41:58.054Z,14.48
2024-01-22T00:44:24.568Z,13.38
2024-01-22T00:46:51.064Z,15.70
2024-01-22T00:49:17.776Z,14.15
2024-01-22T00:51:44.341Z,15.15
2024-01-22T00:54:11.835Z,16.25
2024-01-22T00:56:38.315Z,18.05
2024-01-22T00:59:04.775Z,13.88
2024-01-22T01:01:32.794Z,15.13
2024-01-22T01:03:59.275Z,12.70
2024-01-22T01:06:25.731Z,14.85
2024-01-22T01:08:52.216Z,12.15
2024-01-22T01:11:18.738Z,13.02
2024-01-22T01:13:48.131Z,14.32
2024-01-22T01:16:14.603Z,12.93
2024-01-22T01:18:41.176Z,11.75
2024-01-22T01:21:09.579Z,15.43
2024-01-22T01:23:36.100Z,12.32
2024-01-22T01:26:02.576Z,12.75
2024-01-22T01:28:29.079Z,12.27
2024-01-22T01:30:55.557Z,10.93
2024-01-22T01:33:22.095Z,14.63
2024-01-22T01:35:48.782Z,13.18
2024-01-22T01:38:15.327Z,13.45
2024-01-22T01:40:42.343Z,12.18
2024-01-22T01:43:08.816Z,12.82
2024-01-22T01:45:35.242Z,15.70
2024-01-22T01:48:02.669Z,14.07
2024-01-22T01:50:29.573Z,12.90
2024-01-22T01:52:56.283Z,13.88
2024-01-22T01:55:23.122Z,12.02
2024-01-22T01:57:57.266Z,13.48
2024-01-22T02:00:27.087Z,11.13
2024-01-22T02:02:53.880Z,15.45
2024-01-22T02:05:20.459Z,13.80
2024-01-22T02:07:47.113Z,13.68
2024-01-22T02:10:14.160Z,12.73
2024-01-22T02:12:42.626Z,13.70
2024-01-22T02:15:09.743Z,10.77
2024-01-22T02:17:36.497Z,9.02
2024-01-22T02:20:04.014Z,12.43
2024-01-22T02:22:30.458Z,14.40
2024-01-22T02:24:56.855Z,12.05
2024-01-22T02:27:23.606Z,12.20
2024-01-22T02:29:50.113Z,12.05
2024-01-22T02:32:16.572Z,10.77
2024-01-22T02:34:43.107Z,12.10
2024-01-22T02:37:09.630Z,10.27
2024-01-22T02:39:37.320Z,11.20
2024-01-22T02:42:03.994Z,15.77
2024-01-22T02:44:30.449Z,11.85
2024-01-22T02:46:56.915Z,12.98
2024-01-22T02:49:23.406Z,12.43
2024-01-22T02:51:50.035Z,14.43
2024-01-22T02:54:16.625Z,14.63
2024-01-22T02:56:43.202Z,12.57
2024-01-22T02:59:09.629Z,10.95
2024-01-22T03:01:36.092Z,12.05
2024-01-22T03:04:02.686Z,10.32
2024-01-22T03:06:29.312Z,11.27
2024-01-22T03:08:55.900Z,11.73
2024-01-22T03:11:23.416Z,9.70
2024-01-22T03:13:49.873Z,10.68
2024-01-22T03:16:16.515Z,11.40
2024-01-22T03:18:43.057Z,11.45
2024-01-22T03:21:09.781Z,11.00
2024-01-22T03:23:36.254Z,12.32
2024-01-22T03:26:03.196Z,12.15
2024-01-22T03:28:29.556Z,10.07
2024-01-22T03:30:55.946Z,13.02
2024-01-22T03:33:22.482Z,10.18
2024-01-22T03:35:49.038Z,11.25
2024-01-22T03:38:15.524Z,14.32
2024-01-22T03:40:41.976Z,11.73
2024-01-22T03:43:08.367Z,8.50
2024-01-22T03:45:34.796Z,11.07
2024-01-22T03:48:01.434Z,11.07
2024-01-22T03:50:27.996Z,9.55
2024-01-22T03:52:54.406Z,10.00
2024-01-22T03:55:20.954Z,9.50
2024-01-22T03:57:47.316Z,10.43
2024-01-22T04:00:14.168Z,7.03
2024-01-22T04:02:40.749Z,13.98
2024-01-22T04:05:08.988Z,8.00
2024-01-22T04:07:35.390Z,10.18
2024-01-22T04:10:01.878Z,12.13
2024-01-22T04:12:28.813Z,8.25
2024-01-22T04:14:55.452Z,11.95
2024-01-22T04:17:21.977Z,6.78
2024-01-22T04:19:48.486Z,7.88
2024-01-22T04:22:15.324Z,9.93
2024-01-22T04:24:41.783Z,8.82
2024-01-22T04:27:08.293Z,9.95
2024-01-22T04:29:35.698Z,9.30
2024-01-22T04:32:02.468Z,11.90
2024-01-22T04:34:29.195Z,9.02
2024-01-22T04:36:55.740Z,8.35
2024-01-22T04:39:22.244Z,5.68
2024-01-22T04:41:48.959Z,8.40
2024-01-22T04:44:15.429Z,7.03
2024-01-22T04:46:41.793Z,8.35
2024-01-22T04:49:09.904Z,7.07
2024-01-22T04:51:36.459Z,6.53
2024-01-22T04:54:02.886Z,10.50
2024-01-22T04:56:29.344Z,6.07
2024-01-22T04:58:55.763Z,5.38
2024-01-22T05:01:22.137Z,7.40
2024-01-22T05:03:48.586Z,8.55
2024-01-22T05:06:15.150Z,7.05
2024-01-22T05:08:41.672Z,8.82
2024-01-22T05:11:08.114Z,6.43
2024-01-22T05:13:34.495Z,10.27
2024-01-22T05:16:01.381Z,6.93
2024-01-22T05:18:27.946Z,8.57
2024-01-22T05:20:54.463Z,6.22
2024-01-22T05:23:20.923Z,10.75
2024-01-22T05:25:47.325Z,4.13
2024-01-22T05:28:13.789Z,10.18
2024-01-22T05:30:40.251Z,6.22
2024-01-22T05:33:06.792Z,7.00
2024-01-22T05:35:33.245Z,6.28
2024-01-22T05:37:59.672Z,7.38
2024-01-22T05:40:26.163Z,5.25
2024-01-22T05:42:52.594Z,13.27
2024-01-22T05:45:19.210Z,6.47
2024-01-22T05:47:46.877Z,6.70
2024-01-22T05:50:13.598Z,8.68
2024-01-22T05:52:40.088Z,6.45
2024-01-22T05:55:06.848Z,9.30
2024-01-22T05:57:33.291Z,6.32
2024-01-22T05:59:59.757Z,5.32
2024-01-22T06:02:26.973Z,5.75
2024-01-22T06:04:53.447Z,9.55
2024-01-22T06:07:19.971Z,6.28
2024-01-22T06:09:49.639Z,5.10
2024-01-22T06:12:21.508Z,10.70
2024-01-22T06:14:47.985Z,6.53
2024-01-22T06:17:14.412Z,9.27
2024-01-22T06:19:40.901Z,6.45
2024-01-22T06:22:07.327Z,5.05
2024-01-22T06:24:36.743Z,5.13
2024-01-22T06:27:04.529Z,5.20
2024-01-22T06:29:30.982Z,10.25
2024-01-22T06:31:57.437Z,5.72
2024-01-22T06:34:24.033Z,5.45
2024-01-22T06:36:50.529Z,6.38
2024-01-22T06:39:17.068Z,6.15
2024-01-22T06:41:43.890Z,6.18
2024-01-22T06:44:10.446Z,7.75
2024-01-22T06:46:37.018Z,7.97
2024-01-22T06:49:09.128Z,6.07
2024-01-22T06:51:45.058Z,6.72
2024-01-22T06:54:12.791Z,7.38
2024-01-22T06:56:39.371Z,6.90
2024-01-22T06:59:06.428Z,9.02
2024-01-22T07:01:32.873Z,6.97
2024-01-22T07:03:59.501Z,6.55
2024-01-22T07:06:26.955Z,7.60
2024-01-22T07:08:54.632Z,10.70
2024-01-22T07:11:21.067Z,8.13
2024-01-22T07:13:48.688Z,6.15
2024-01-22T07:16:15.163Z,6.15
2024-01-22T07:18:41.628Z,5.90
2024-01-22T07:21:08.404Z,4.47
2024-01-22T07:23:34.841Z,6.32
2024-01-22T07:26:01.698Z,20.08
2024-01-22T07:28:29.675Z,6.07
2024-01-22T07:30:56.075Z,9.98
2024-01-22T07:33:22.684Z,3.35
2024-01-22T07:35:49.270Z,5.45
2024-01-22T07:38:15.796Z,17.17
2024-01-22T07:40:43.108Z,21.35
2024-01-22T07:43:09.704Z,13.18
2024-01-22T07:45:36.342Z,12.38
2024-01-22T07:48:03.069Z,6.32
2024-01-22T07:50:29.536Z,7.90
2024-01-22T07:52:55.920Z,10.07
2024-01-22T07:55:22.380Z,12.15
2024-01-22T07:57:48.830Z,10.90
2024-01-22T08:00:15.933Z,5.97
2024-01-22T08:02:42.710Z,5.60
2024-01-22T08:05:15.160Z,5.82
2024-01-22T08:07:43.294Z,6.28
2024-01-22T08:10:10.357Z,9.18
2024-01-22T08:12:36.821Z,4.95
2024-01-22T08:15:03.448Z,5.85
2024-01-22T08:17:29.838Z,7.38
2024-01-22T08:19:56.426Z,6.57
2024-01-22T08:22:22.939Z,6.93
2024-01-22T08:24:49.546Z,6.50
2024-01-22T08:27:16.078Z,8.50
2024-01-22T08:29:42.726Z,5.10
2024-01-22T08:32:10.322Z,6.80
2024-01-22T08:34:39.452Z,4.85
2024-01-22T08:37:10.044Z,5.07
2024-01-22T08:42:57.697Z,9.75
2024-01-22T08:45:36.868Z,5.85
2024-01-22T08:48:03.384Z,5.35
2024-01-22T08:50:29.809Z,7.32
2024-01-22T08:52:56.304Z,6.78
2024-01-22T08:55:24.423Z,7.72
2024-01-22T08:57:51.164Z,7.38
2024-01-22T09:00:17.840Z,6.85
2024-01-22T09:02:45.550Z,9.38
2024-01-22T09:05:12.349Z,5.75
2024-01-22T09:07:39.172Z,4.53
2024-01-22T09:10:07.892Z,4.95
2024-01-22T09:12:35.179Z,5.13
2024-01-22T09:24:22.872Z,4.35
2024-01-22T09:26:49.485Z,5.95
2024-01-22T09:29:15.926Z,5.55
2024-01-22T09:31:42.428Z,3.83
2024-01-22T09:34:08.949Z,9.07
2024-01-22T09:36:35.614Z,5.78
2024-01-22T09:39:02.176Z,6.72
2024-01-22T09:41:29.061Z,9.65
2024-01-22T09:43:55.894Z,3.47
2024-01-22T09:46:23.349Z,5.57
2024-01-22T09:48:51.309Z,7.28
2024-01-22T09:51:18.302Z,4.63
2024-01-22T09:53:47.756Z,5.22
2024-01-22T09:56:18.098Z,5.32
2024-01-22T09:58:45.531Z,3.65
2024-01-22T10:01:12.378Z,5.60
2024-01-22T10:03:40.398Z,3.78
2024-01-22T10:06:07.341Z,4.93
2024-01-22T10:08:33.800Z,8.80
2024-01-22T10:11:00.348Z,6.72
2024-01-22T10:13:26.823Z,5.57
2024-01-22T10:15:53.254Z,6.47
2024-01-22T10:18:20.287Z,5.15
2024-01-22T10:20:48.149Z,5.20
2024-01-22T10:23:17.249Z,5.60
2024-01-22T10:25:44.020Z,9.65
2024-01-22T10:28:17.972Z,4.80
2024-01-22T10:30:45.551Z,5.45
2024-01-22T10:33:16.515Z,3.88
2024-01-22T10:35:44.060Z,5.95
2024-01-22T10:38:20.552Z,4.20
2024-01-22T10:40:47.981Z,5.93
2024-01-22T10:43:22.081Z,7.32
2024-01-22T10:45:50.173Z,7.97
2024-01-22T10:48:27.964Z,6.25
2024-01-22T10:51:05.952Z,7.35
2024-01-22T10:53:33.403Z,3.45
2024-01-22T10:56:03.021Z,5.35
2024-01-22T10:58:42.678Z,13.40
2024-01-22T11:01:16.654Z,10.23
2024-01-22T11:03:51.825Z,10.60
2024-01-22T11:06:28.707Z,7.80
2024-01-22T11:08:58.294Z,9.30
2024-01-22T11:11:26.725Z,7.97
2024-01-22T11:13:57.271Z,7.60
2024-01-22T11:16:24.238Z,9.02
2024-01-22T11:19:01.751Z,8.70
2024-01-22T11:21:39.471Z,7.28
2024-01-22T11:24:17.960Z,7.15
2024-01-22T11:26:47.895Z,7.93
2024-01-22T11:29:15.841Z,5.82
2024-01-22T11:31:42.890Z,8.65
2024-01-22T11:34:12.200Z,6.10
2024-01-22T11:37:04.850Z,8.15
2024-01-22T11:39:34.145Z,6.90
2024-01-22T11:42:01.192Z,7.82
2024-01-22T11:44:29.074Z,5.93
2024-01-22T11:47:05.974Z,8.93
2024-01-22T11:49:36.373Z,5.15
2024-01-22T11:52:12.835Z,9.48
2024-01-22T11:54:40.150Z,8.00
2024-01-22T11:57:06.781Z,11.45
2024-01-22T11:59:33.496Z,6.70
2024-01-22T12:02:12.881Z,8.15
2024-01-22T12:04:40.036Z,7.22
2024-01-22T12:07:07.804Z,7.18
2024-01-22T12:09:35.230Z,7.30
2024-01-22T12:12:04.672Z,8.20
2024-01-22T12:14:31.667Z,11.65
2024-01-22T12:17:02.156Z,9.48
2024-01-22T12:19:28.773Z,10.35
2024-01-22T12:21:55.474Z,8.55
2024-01-22T12:24:22.049Z,7.20
2024-01-22T12:26:54.782Z,7.25
2024-01-22T12:29:25.655Z,8.57
2024-01-22T12:32:05.837Z,8.98
2024-01-22T12:34:35.930Z,9.40
2024-01-22T12:37:20.848Z,8.25
2024-01-22T12:39:48.218Z,6.47
2024-01-22T12:42:22.483Z,8.75
2024-01-22T12:44:59.867Z,6.50
2024-01-22T12:47:32.786Z,8.77
2024-01-22T12:50:01.976Z,5.75
2024-01-22T12:52:28.814Z,9.93
2024-01-22T12:54:55.702Z,11.73
2024-01-22T12:57:23.665Z,9.93
2024-01-22T12:59:50.786Z,7.80
2024-01-22T13:02:17.550Z,8.25
2024-01-22T13:04:44.220Z,9.40
2024-01-22T13:07:11.819Z,10.27
2024-01-22T13:09:39.077Z,8.75
2024-01-22T13:12:07.680Z,6.93
2024-01-22T13:14:34.475Z,6.65
2024-01-22T13:17:02.620Z,5.35
2024-01-22T13:19:29.126Z,10.68
2024-01-22T13:21:57.825Z,7.63
2024-01-22T13:24:24.311Z,7.07
2024-01-22T13:26:50.810Z,8.25
2024-01-22T13:29:17.866Z,5.32
2024-01-22T13:31:44.294Z,11.63
2024-01-22T13:34:10.862Z,6.38
2024-01-22T13:36:37.391Z,11.23
2024-01-22T13:39:03.920Z,8.80
2024-01-22T13:41:32.723Z,4.80
2024-01-22T13:43:59.265Z,6.22
2024-01-22T13:46:25.675Z,5.72
2024-01-22T13:48:52.641Z,7.18
2024-01-22T13:51:20.007Z,8.20
2024-01-22T13:53:46.847Z,4.45
2024-01-22T13:56:13.862Z,6.00
2024-01-22T13:58:40.448Z,4.63
2024-01-22T14:01:09.138Z,5.70
2024-01-22T14:03:36.324Z,4.25
2024-01-22T14:06:09.810Z,3.97
2024-01-22T14:08:37.388Z,5.43
2024-01-22T14:11:05.529Z,4.63
2024-01-22T14:13:31.988Z,3.78
2024-01-22T14:15:58.633Z,5.35
2024-01-22T14:18:27.814Z,3.70
2024-01-22T14:20:54.495Z,4.00
2024-01-22T14:23:21.234Z,4.68
2024-01-22T14:25:48.013Z,4.53
2024-01-22T14:28:14.879Z,4.57
2024-01-22T14:30:41.544Z,6.38
2024-01-22T14:33:08.197Z,7.85
2024-01-22T14:35:34.645Z,4.55
2024-01-22T14:38:01.276Z,6.18
2024-01-22T14:40:27.945Z,8.63
2024-01-22T14:42:54.400Z,3.50
2024-01-22T14:45:20.876Z,5.80
2024-01-22T14:47:47.420Z,3.42
2024-01-22T14:50:16.262Z,5.15
2024-01-22T14:52:42.711Z,6.10
2024-01-22T14:55:09.172Z,5.47
2024-01-22T14:57:35.647Z,3.90
2024-01-22T15:00:02.125Z,4.03
2024-01-22T15:02:28.540Z,3.92
2024-01-22T15:04:55.917Z,5.82
2024-01-22T15:07:22.445Z,7.38
2024-01-22T15:09:50.632Z,3.50
2024-01-22T15:12:17.131Z,3.53
2024-01-22T15:14:43.615Z,6.20
2024-01-22T15:17:10.064Z,5.88
2024-01-22T15:19:39.646Z,3.40
2024-01-22T15:22:07.408Z,7.15
2024-01-22T15:24:34.194Z,7.45
2024-01-22T15:27:00.989Z,7.47
2024-01-22T15:29:27.450Z,4.75
2024-01-22T15:31:53.992Z,4.35
2024-01-22T15:34:21.209Z,8.27
2024-01-22T15:36:48.092Z,9.07
2024-01-22T15:39:14.667Z,4.60
2024-01-22T15:41:44.190Z,6.05
2024-01-22T15:44:12.093Z,7.22
2024-01-22T15:49:12.599Z,4.28
2024-01-22T15:51:39.060Z,5.78
2024-01-22T15:54:05.600Z,4.22
2024-01-22T15:56:32.179Z,4.85
2024-01-22T15:58:58.695Z,7.72
2024-01-22T16:01:27.093Z,10.25
2024-01-22T16:03:55.663Z,5.32
2024-01-22T16:06:24.901Z,6.90
2024-01-22T16:08:51.873Z,5.90
2024-01-22T16:11:18.351Z,6.20
2024-01-22T16:13:47.832Z,5.72
2024-01-22T16:16:15.802Z,5.50
2024-01-22T16:18:42.985Z,7.40
2024-01-22T16:21:11.681Z,6.28
2024-01-22T16:23:39.275Z,6.07
2024-01-22T16:26:08.691Z,5.45
2024-01-22T16:28:38.783Z,5.32
2024-01-22T16:31:05.250Z,6.18
2024-01-22T16:33:33.494Z,11.15
2024-01-22T16:36:00.257Z,6.95
2024-01-22T16:38:26.961Z,6.65
2024-01-22T16:40:53.467Z,8.43
2024-01-22T16:43:20.015Z,7.18
2024-01-22T16:45:47.825Z,6.25
2024-01-22T16:48:14.618Z,6.25
2024-01-22T16:50:41.925Z,7.22
2024-01-22T16:53:08.960Z,12.00
2024-01-22T16:55:35.497Z,8.68
2024-01-22T16:58:02.137Z,9.35
2024-01-22T17:00:28.718Z,10.30
2024-01-22T17:02:55.211Z,8.45
2024-01-22T17:05:21.695Z,6.95
2024-01-22T17:07:49.331Z,10.65
2024-01-22T17:10:16.293Z,4.82
2024-01-22T17:12:43.392Z,8.45
2024-01-22T17:15:10.479Z,7.88
2024-01-22T17:17:37.081Z,6.55
2024-01-22T17:20:05.429Z,6.47
2024-01-22T17:22:33.795Z,11.60
2024-01-22T17:25:00.518Z,13.60
2024-01-22T17:27:27.529Z,10.35
2024-01-22T17:29:54.114Z,7.55
2024-01-22T17:32:20.937Z,8.85
2024-01-22T17:34:48.537Z,7.20
2024-01-22T17:37:15.241Z,11.35
2024-01-22T17:39:42.850Z,12.77
2024-01-22T17:42:09.926Z,9.70
2024-01-22T17:44:39.377Z,8.23
2024-01-22T17:47:05.810Z,9.75
2024-01-22T17:49:32.411Z,7.68
2024-01-22T17:52:00.801Z,6.57
2024-01-22T17:54:27.310Z,9.18
2024-01-22T17:56:53.757Z,14.98
2024-01-22T17:59:20.169Z,8.68
2024-01-22T18:01:46.586Z,12.65
2024-01-22T18:04:13.060Z,11.07
2024-01-22T18:06:39.592Z,11.43
2024-01-22T18:09:07.209Z,10.55
2024-01-22T18:11:36.768Z,17.67
2024-01-22T18:14:03.515Z,15.13
2024-01-22T18:16:31.792Z,13.05
2024-01-22T18:18:58.258Z,10.27
2024-01-22T18:21:24.821Z,13.45
2024-01-22T18:23:51.360Z,13.48
2024-01-22T18:26:17.777Z,11.48
2024-01-22T18:28:44.319Z,11.63
2024-01-22T18:31:10.792Z,16.00
2024-01-22T18:33:39.266Z,11.82
2024-01-22T18:36:08.537Z,14.20
2024-01-22T18:38:34.988Z,12.52
2024-01-22T18:41:01.393Z,14.90
2024-01-22T18:43:27.832Z,12.90
2024-01-22T18:45:55.986Z,12.70
2024-01-22T18:48:22.869Z,20.23
2024-01-22T18:50:49.488Z,12.02
2024-01-22T18:53:18.264Z,12.40
2024-01-22T18:55:44.721Z,14.88
2024-01-22T18:58:11.077Z,11.48
2024-01-22T19:00:37.555Z,12.38
2024-01-22T19:03:05.243Z,9.85
2024-01-22T19:05:32.936Z,15.85
2024-01-22T19:07:59.388Z,19.40
2024-01-22T19:10:25.751Z,13.05
2024-01-22T19:12:52.738Z,16.25
2024-01-22T19:15:19.177Z,12.25
2024-01-22T19:20:12.909Z,16.65
2024-01-22T19:22:39.363Z,9.77
2024-01-22T19:25:06.113Z,15.10
2024-01-22T19:27:32.542Z,20.30
2024-01-22T19:29:59.010Z,16.35
2024-01-22T19:32:25.551Z,15.70
2024-01-22T19:34:52.073Z,15.32
2024-01-22T19:37:18.886Z,12.13
2024-01-22T19:39:46.976Z,15.13
2024-01-22T19:42:13.710Z,14.93
2024-01-22T19:44:40.099Z,17.38
2024-01-22T19:47:06.741Z,13.93
2024-01-22T19:49:33.226Z,14.02
2024-01-22T19:51:59.653Z,14.45
2024-01-22T19:54:26.081Z,12.18
2024-01-22T19:56:52.970Z,14.52
2024-01-22T19:59:19.505Z,11.98
2024-01-22T20:01:46.039Z,20.65
2024-01-22T20:04:13.997Z,11.40
2024-01-22T20:06:40.660Z,12.27
2024-01-22T20:09:07.342Z,11.18
2024-01-22T20:11:33.828Z,15.15
2024-01-22T20:14:00.628Z,14.80
2024-01-22T20:16:27.540Z,17.80
2024-01-22T20:18:54.645Z,16.85
2024-01-22T20:21:21.436Z,13.48
2024-01-22T20:23:56.834Z,15.00
2024-01-22T20:26:32.848Z,11.70
2024-01-22T20:29:01.896Z,12.30
2024-01-22T20:31:28.366Z,18.85
2024-01-22T20:34:00.799Z,11.27
2024-01-22T20:36:28.062Z,11.95
2024-01-22T20:38:54.912Z,17.33
2024-01-22T20:41:21.725Z,21.45
2024-01-22T20:43:48.259Z,13.07
2024-01-22T20:46:14.834Z,14.15
2024-01-22T20:48:41.301Z,14.90
2024-01-22T20:51:08.852Z,17.75
2024-01-22T20:53:36.355Z,12.45
2024-01-22T20:56:02.950Z,14.13
2024-01-22T20:58:30.513Z,18.65
2024-01-22T21:00:58.899Z,15.55
2024-01-22T21:03:26.861Z,17.13
2024-01-22T21:05:53.818Z,12.10
2024-01-22T21:08:20.571Z,16.85
2024-01-22T21:10:56.338Z,11.10
2024-01-22T21:13:23.005Z,12.20
2024-01-22T21:15:51.175Z,13.70
2024-01-22T21:18:18.230Z,15.32
2024-01-22T21:20:45.002Z,13.40
2024-01-22T21:23:11.422Z,15.65
2024-01-22T21:25:37.840Z,12.38
2024-01-22T21:28:04.560Z,15.02
2024-01-22T21:30:31.029Z,18.08
2024-01-22T21:32:59.411Z,12.30
2024-01-22T21:35:26.259Z,13.43
2024-01-22T21:37:52.717Z,12.43
2024-01-22T21:40:20.116Z,17.10
2024-01-22T21:42:49.402Z,15.27
2024-01-22T21:45:16.002Z,13.82
2024-01-22T21:47:42.498Z,14.13
2024-01-22T21:50:10.299Z,17.13
2024-01-22T21:52:37.194Z,16.88
2024-01-22T21:55:11.689Z,16.70
2024-01-22T21:57:39.247Z,15.98
2024-01-22T22:00:12.008Z,18.95
2024-01-22T22:02:39.694Z,12.77
2024-01-22T22:05:07.025Z,23.52
2024-01-22T22:07:33.674Z,19.65
2024-01-22T22:10:00.116Z,13.98
2024-01-22T22:12:28.577Z,6.18
2024-01-22T22:14:55.132Z,16.77
2024-01-22T22:17:21.778Z,14.60
2024-01-22T22:19:48.399Z,13.75
2024-01-22T22:22:15.200Z,15.32
2024-01-22T22:27:35.111Z,18.75
2024-01-22T22:30:03.037Z,12.98
2024-01-22T22:32:29.753Z,17.42
2024-01-22T22:34:56.511Z,11.38
2024-01-22T22:37:26.500Z,13.90
2024-01-22T22:42:48.705Z,11.90
2024-01-22T22:45:15.420Z,9.93
2024-01-22T22:47:41.956Z,11.90
2024-01-22T22:50:08.770Z,11.15
2024-01-22T22:52:35.304Z,8.43
2024-01-22T22:55:01.791Z,10.45
2024-01-22T22:57:29.853Z,8.95
2024-01-22T23:00:03.696Z,9.77
2024-01-22T23:03:15.950Z,13.38
2024-01-22T23:07:10.633Z,11.40
2024-01-22T23:10:05.119Z,8.45
2024-01-22T23:12:48.430Z,9.30
2024-01-22T23:15:20.234Z,12.68
2024-01-22T23:18:08.355Z,9.73
2024-01-22T23:24:15.291Z,7.90
2024-01-22T23:30:43.380Z,9.48
2024-01-22T23:53:15.537Z,10.20
2024-01-22T23:56:37.374Z,9.05
